sensor_id;sensor_type;location;lat;lon;timestamp;P1;durP1;ratioP1;P2;durP2;ratioP2
6356;SDS011;3211;53.452;-2.264;2023-01-26T00:02:22;20.53;;;9.87;;
6356;SDS011;3211;53.452;-2.264;2023-01-26T00:04:49;24.00;;;10.73;;
6356;SDS011;3211;53.452;-2.264;2023-01-26T00:07:16;18.33;;;8.43;;
6356;SDS011;3211;53.452;-2.264;2023-01-26T00:09:43;17.50;;;7.90;;
6356;SDS011;3211;53.452;-2.264;2023-01-26T00:12:10;20.70;;;9.37;;
6356;SDS011;3211;53.452;-2.264;2023-01-26T00:14:38;22.03;;;9.07;;
6356;SDS011;3211;53.452;-2.264;2023-01-26T00:17:17;20.43;;;8.63;;
6356;SDS011;3211;53.452;-2.264;2023-01-26T00:19:54;18.17;;;8.83;;
6356;SDS011;3211;53.452;-2.264;2023-01-26T00:22:22;18.33;;;8.67;;
6356;SDS011;3211;53.452;-2.264;2023-01-26T00:24:50;16.20;;;9.03;;
6356;SDS011;3211;53.452;-2.264;2023-01-26T00:27:17;20.10;;;9.50;;
6356;SDS011;3211;53.452;-2.264;2023-01-26T00:29:46;21.03;;;8.97;;
6356;SDS011;3211;53.452;-2.264;2023-01-26T00:32:13;21.13;;;8.83;;
6356;SDS011;3211;53.452;-2.264;2023-01-26T00:34:40;15.90;;;8.50;;
6356;SDS011;3211;53.452;-2.264;2023-01-26T00:37:07;18.50;;;8.70;;
6356;SDS011;3211;53.452;-2.264;2023-01-26T00:39:34;12.10;;;8.20;;
6356;SDS011;3211;53.452;-2.264;2023-01-26T00:42:01;22.33;;;8.90;;
6356;SDS011;3211;53.452;-2.264;2023-01-26T00:44:38;17.60;;;8.20;;
6356;SDS011;3211;53.452;-2.264;2023-01-26T00:47:08;16.13;;;7.70;;
6356;SDS011;3211;53.452;-2.264;2023-01-26T00:49:35;13.13;;;7.90;;
6356;SDS011;3211;53.452;-2.264;2023-01-26T00:52:02;15.43;;;8.10;;
6356;SDS011;3211;53.452;-2.264;2023-01-26T00:54:30;29.83;;;16.43;;
6356;SDS011;3211;53.452;-2.264;2023-01-26T00:56:57;22.13;;;9.70;;
6356;SDS011;3211;53.452;-2.264;2023-01-26T00:59:24;15.30;;;8.13;;
6356;SDS011;3211;53.452;-2.264;2023-01-26T01:02:11;19.43;;;9.20;;
6356;SDS011;3211;53.452;-2.264;2023-01-26T01:04:56;32.77;;;13.13;;
6356;SDS011;3211;53.452;-2.264;2023-01-26T01:07:23;32.90;;;15.30;;
6356;SDS011;3211;53.452;-2.264;2023-01-26T01:10:09;25.27;;;12.07;;
6356;SDS011;3211;53.452;-2.264;2023-01-26T01:12:36;26.57;;;12.30;;
6356;SDS011;3211;53.452;-2.264;2023-01-26T01:15:04;18.83;;;8.63;;
6356;SDS011;3211;53.452;-2.264;2023-01-26T01:17:33;17.60;;;8.53;;
6356;SDS011;3211;53.452;-2.264;2023-01-26T01:20:01;20.57;;;8.80;;
6356;SDS011;3211;53.452;-2.264;2023-01-26T01:22:29;17.63;;;8.53;;
6356;SDS011;3211;53.452;-2.264;2023-01-26T01:24:56;16.53;;;8.40;;
6356;SDS011;3211;53.452;-2.264;2023-01-26T01:27:24;12.50;;;7.40;;
6356;SDS011;3211;53.452;-2.264;2023-01-26T01:29:51;16.90;;;7.80;;
6356;SDS011;3211;53.452;-2.264;2023-01-26T01:32:18;12.90;;;7.30;;
6356;SDS011;3211;53.452;-2.264;2023-01-26T01:34:47;13.33;;;8.00;;
6356;SDS011;3211;53.452;-2.264;2023-01-26T01:37:14;24.60;;;8.07;;
6356;SDS011;3211;53.452;-2.264;2023-01-26T01:39:42;14.20;;;6.93;;
6356;SDS011;3211;53.452;-2.264;2023-01-26T01:42:09;18.50;;;7.83;;
6356;SDS011;3211;53.452;-2.264;2023-01-26T01:44:37;20.40;;;7.70;;
6356;SDS011;3211;53.452;-2.264;2023-01-26T01:47:04;17.87;;;7.50;;
6356;SDS011;3211;53.452;-2.264;2023-01-26T01:49:39;17.50;;;8.13;;
6356;SDS011;3211;53.452;-2.264;2023-01-26T01:52:13;13.57;;;7.00;;
6356;SDS011;3211;53.452;-2.264;2023-01-26T01:54:43;21.80;;;7.90;;
6356;SDS011;3211;53.452;-2.264;2023-01-26T01:57:16;16.73;;;8.37;;
6356;SDS011;3211;53.452;-2.264;2023-01-26T01:59:53;14.00;;;7.27;;
6356;SDS011;3211;53.452;-2.264;2023-01-26T02:02:23;14.27;;;7.77;;
6356;SDS011;3211;53.452;-2.264;2023-01-26T02:04:50;19.80;;;8.60;;
6356;SDS011;3211;53.452;-2.264;2023-01-26T02:07:24;20.10;;;8.70;;
6356;SDS011;3211;53.452;-2.264;2023-01-26T02:09:53;16.23;;;8.00;;
6356;SDS011;3211;53.452;-2.264;2023-01-26T02:12:38;17.60;;;8.10;;
6356;SDS011;3211;53.452;-2.264;2023-01-26T02:15:06;22.13;;;7.80;;
6356;SDS011;3211;53.452;-2.264;2023-01-26T02:17:34;16.90;;;8.83;;
6356;SDS011;3211;53.452;-2.264;2023-01-26T02:20:02;17.77;;;7.63;;
6356;SDS011;3211;53.452;-2.264;2023-01-26T02:22:37;17.53;;;8.00;;
6356;SDS011;3211;53.452;-2.264;2023-01-26T02:25:12;14.30;;;7.40;;
6356;SDS011;3211;53.452;-2.264;2023-01-26T02:27:47;14.07;;;8.10;;
6356;SDS011;3211;53.452;-2.264;2023-01-26T02:30:14;14.97;;;7.63;;
6356;SDS011;3211;53.452;-2.264;2023-01-26T02:32:42;15.57;;;8.23;;
6356;SDS011;3211;53.452;-2.264;2023-01-26T02:35:09;15.90;;;8.70;;
6356;SDS011;3211;53.452;-2.264;2023-01-26T02:37:36;16.30;;;8.10;;
6356;SDS011;3211;53.452;-2.264;2023-01-26T02:40:04;20.07;;;8.87;;
6356;SDS011;3211;53.452;-2.264;2023-01-26T02:42:36;12.47;;;7.50;;
6356;SDS011;3211;53.452;-2.264;2023-01-26T02:45:08;20.47;;;7.87;;
6356;SDS011;3211;53.452;-2.264;2023-01-26T02:47:36;16.90;;;7.90;;
6356;SDS011;3211;53.452;-2.264;2023-01-26T02:50:04;17.30;;;7.87;;
6356;SDS011;3211;53.452;-2.264;2023-01-26T02:52:31;14.17;;;7.50;;
6356;SDS011;3211;53.452;-2.264;2023-01-26T02:54:58;15.50;;;7.60;;
6356;SDS011;3211;53.452;-2.264;2023-01-26T02:57:43;15.77;;;8.50;;
6356;SDS011;3211;53.452;-2.264;2023-01-26T03:00:12;14.93;;;7.83;;
6356;SDS011;3211;53.452;-2.264;2023-01-26T03:02:41;19.80;;;8.00;;
6356;SDS011;3211;53.452;-2.264;2023-01-26T03:05:08;13.80;;;7.20;;
6356;SDS011;3211;53.452;-2.264;2023-01-26T03:07:35;19.43;;;8.77;;
6356;SDS011;3211;53.452;-2.264;2023-01-26T03:10:03;13.70;;;6.70;;
6356;SDS011;3211;53.452;-2.264;2023-01-26T03:12:30;15.47;;;7.37;;
6356;SDS011;3211;53.452;-2.264;2023-01-26T03:14:58;12.73;;;7.27;;
6356;SDS011;3211;53.452;-2.264;2023-01-26T03:17:43;16.50;;;7.50;;
6356;SDS011;3211;53.452;-2.264;2023-01-26T03:20:10;16.30;;;7.23;;
6356;SDS011;3211;53.452;-2.264;2023-01-26T03:22:55;14.77;;;7.90;;
6356;SDS011;3211;53.452;-2.264;2023-01-26T03:25:40;18.37;;;7.37;;
6356;SDS011;3211;53.452;-2.264;2023-01-26T03:28:29;16.10;;;7.93;;
6356;SDS011;3211;53.452;-2.264;2023-01-26T03:30:56;16.87;;;7.57;;
6356;SDS011;3211;53.452;-2.264;2023-01-26T03:33:25;16.63;;;7.80;;
6356;SDS011;3211;53.452;-2.264;2023-01-26T03:35:52;22.33;;;7.97;;
6356;SDS011;3211;53.452;-2.264;2023-01-26T03:38:19;21.17;;;7.50;;
6356;SDS011;3211;53.452;-2.264;2023-01-26T03:40:46;14.27;;;6.40;;
6356;SDS011;3211;53.452;-2.264;2023-01-26T03:43:31;20.80;;;7.13;;
6356;SDS011;3211;53.452;-2.264;2023-01-26T03:46:15;14.47;;;7.03;;
6356;SDS011;3211;53.452;-2.264;2023-01-26T03:49:01;22.37;;;7.00;;
6356;SDS011;3211;53.452;-2.264;2023-01-26T03:51:45;14.23;;;6.77;;
6356;SDS011;3211;53.452;-2.264;2023-01-26T03:54:30;18.57;;;7.40;;
6356;SDS011;3211;53.452;-2.264;2023-01-26T03:57:14;18.13;;;7.87;;
6356;SDS011;3211;53.452;-2.264;2023-01-26T03:59:41;14.20;;;7.03;;
6356;SDS011;3211;53.452;-2.264;2023-01-26T04:02:09;12.47;;;7.47;;
6356;SDS011;3211;53.452;-2.264;2023-01-26T04:04:56;16.13;;;7.40;;
6356;SDS011;3211;53.452;-2.264;2023-01-26T04:07:40;16.30;;;7.07;;
6356;SDS011;3211;53.452;-2.264;2023-01-26T04:10:25;14.97;;;7.30;;
6356;SDS011;3211;53.452;-2.264;2023-01-26T04:12:52;14.87;;;6.97;;
6356;SDS011;3211;53.452;-2.264;2023-01-26T04:15:36;23.40;;;7.90;;
6356;SDS011;3211;53.452;-2.264;2023-01-26T04:18:21;12.97;;;6.10;;
6356;SDS011;3211;53.452;-2.264;2023-01-26T04:21:07;12.60;;;7.40;;
6356;SDS011;3211;53.452;-2.264;2023-01-26T04:23:53;22.13;;;7.37;;
6356;SDS011;3211;53.452;-2.264;2023-01-26T04:26:21;16.33;;;6.73;;
6356;SDS011;3211;53.452;-2.264;2023-01-26T04:28:48;15.53;;;6.23;;
6356;SDS011;3211;53.452;-2.264;2023-01-26T04:31:15;19.80;;;6.60;;
6356;SDS011;3211;53.452;-2.264;2023-01-26T04:33:42;24.30;;;7.90;;
6356;SDS011;3211;53.452;-2.264;2023-01-26T04:36:10;16.70;;;7.00;;
6356;SDS011;3211;53.452;-2.264;2023-01-26T04:38:37;14.40;;;7.70;;
6356;SDS011;3211;53.452;-2.264;2023-01-26T04:41:04;16.23;;;7.23;;
6356;SDS011;3211;53.452;-2.264;2023-01-26T04:43:31;15.17;;;7.80;;
6356;SDS011;3211;53.452;-2.264;2023-01-26T04:45:58;12.67;;;7.33;;
6356;SDS011;3211;53.452;-2.264;2023-01-26T04:48:27;21.40;;;7.60;;
6356;SDS011;3211;53.452;-2.264;2023-01-26T04:50:55;14.40;;;7.70;;
6356;SDS011;3211;53.452;-2.264;2023-01-26T04:53:24;14.10;;;7.10;;
6356;SDS011;3211;53.452;-2.264;2023-01-26T04:55:52;17.47;;;7.70;;
6356;SDS011;3211;53.452;-2.264;2023-01-26T04:58:19;15.97;;;7.67;;
6356;SDS011;3211;53.452;-2.264;2023-01-26T05:00:49;19.00;;;7.07;;
6356;SDS011;3211;53.452;-2.264;2023-01-26T05:03:16;11.77;;;6.70;;
6356;SDS011;3211;53.452;-2.264;2023-01-26T05:05:44;15.13;;;6.60;;
6356;SDS011;3211;53.452;-2.264;2023-01-26T05:08:13;10.30;;;5.80;;
6356;SDS011;3211;53.452;-2.264;2023-01-26T05:10:41;12.43;;;6.30;;
6356;SDS011;3211;53.452;-2.264;2023-01-26T05:13:08;12.77;;;6.33;;
6356;SDS011;3211;53.452;-2.264;2023-01-26T05:15:35;14.40;;;6.97;;
6356;SDS011;3211;53.452;-2.264;2023-01-26T05:18:03;22.03;;;7.00;;
6356;SDS011;3211;53.452;-2.264;2023-01-26T05:20:30;14.40;;;6.47;;
6356;SDS011;3211;53.452;-2.264;2023-01-26T05:22:57;13.57;;;6.77;;
6356;SDS011;3211;53.452;-2.264;2023-01-26T05:25:24;14.27;;;6.30;;
6356;SDS011;3211;53.452;-2.264;2023-01-26T05:27:52;13.73;;;6.47;;
6356;SDS011;3211;53.452;-2.264;2023-01-26T05:30:19;13.93;;;6.43;;
6356;SDS011;3211;53.452;-2.264;2023-01-26T05:32:47;15.50;;;6.53;;
6356;SDS011;3211;53.452;-2.264;2023-01-26T05:35:14;15.07;;;7.00;;
6356;SDS011;3211;53.452;-2.264;2023-01-26T05:37:41;13.83;;;6.10;;
6356;SDS011;3211;53.452;-2.264;2023-01-26T05:40:10;18.20;;;5.67;;
6356;SDS011;3211;53.452;-2.264;2023-01-26T05:42:38;14.30;;;7.27;;
6356;SDS011;3211;53.452;-2.264;2023-01-26T05:45:06;11.77;;;6.30;;
6356;SDS011;3211;53.452;-2.264;2023-01-26T05:47:35;11.43;;;6.00;;
6356;SDS011;3211;53.452;-2.264;2023-01-26T05:50:02;13.97;;;5.70;;
6356;SDS011;3211;53.452;-2.264;2023-01-26T05:52:29;15.23;;;6.70;;
6356;SDS011;3211;53.452;-2.264;2023-01-26T05:54:57;14.70;;;6.30;;
6356;SDS011;3211;53.452;-2.264;2023-01-26T05:57:24;9.97;;;5.27;;
6356;SDS011;3211;53.452;-2.264;2023-01-26T05:59:51;10.80;;;6.00;;
6356;SDS011;3211;53.452;-2.264;2023-01-26T06:02:19;9.63;;;5.57;;
6356;SDS011;3211;53.452;-2.264;2023-01-26T06:04:46;15.07;;;5.80;;
6356;SDS011;3211;53.452;-2.264;2023-01-26T06:07:13;12.97;;;5.80;;
6356;SDS011;3211;53.452;-2.264;2023-01-26T06:09:40;9.10;;;5.13;;
6356;SDS011;3211;53.452;-2.264;2023-01-26T06:12:10;16.90;;;7.20;;
6356;SDS011;3211;53.452;-2.264;2023-01-26T06:14:40;13.83;;;6.10;;
6356;SDS011;3211;53.452;-2.264;2023-01-26T06:17:07;12.20;;;5.60;;
6356;SDS011;3211;53.452;-2.264;2023-01-26T06:19:35;15.60;;;5.97;;
6356;SDS011;3211;53.452;-2.264;2023-01-26T06:22:02;11.77;;;5.03;;
6356;SDS011;3211;53.452;-2.264;2023-01-26T06:24:32;10.00;;;5.67;;
6356;SDS011;3211;53.452;-2.264;2023-01-26T06:26:59;8.90;;;4.93;;
6356;SDS011;3211;53.452;-2.264;2023-01-26T06:29:26;13.33;;;5.70;;
6356;SDS011;3211;53.452;-2.264;2023-01-26T06:31:54;14.00;;;5.80;;
6356;SDS011;3211;53.452;-2.264;2023-01-26T06:34:21;16.30;;;6.23;;
6356;SDS011;3211;53.452;-2.264;2023-01-26T06:36:49;12.97;;;5.50;;
6356;SDS011;3211;53.452;-2.264;2023-01-26T06:39:16;11.83;;;5.40;;
6356;SDS011;3211;53.452;-2.264;2023-01-26T06:41:43;12.40;;;5.33;;
6356;SDS011;3211;53.452;-2.264;2023-01-26T06:44:10;10.40;;;4.87;;
6356;SDS011;3211;53.452;-2.264;2023-01-26T06:46:38;10.23;;;4.70;;
6356;SDS011;3211;53.452;-2.264;2023-01-26T06:49:05;17.77;;;5.50;;
6356;SDS011;3211;53.452;-2.264;2023-01-26T06:51:43;10.80;;;5.10;;
6356;SDS011;3211;53.452;-2.264;2023-01-26T06:54:18;12.53;;;5.50;;
6356;SDS011;3211;53.452;-2.264;2023-01-26T06:56:45;12.83;;;5.33;;
6356;SDS011;3211;53.452;-2.264;2023-01-26T06:59:12;11.13;;;5.57;;
6356;SDS011;3211;53.452;-2.264;2023-01-26T07:01:57;10.23;;;5.43;;
6356;SDS011;3211;53.452;-2.264;2023-01-26T07:04:43;12.83;;;5.37;;
6356;SDS011;3211;53.452;-2.264;2023-01-26T07:07:12;18.93;;;5.67;;
6356;SDS011;3211;53.452;-2.264;2023-01-26T07:09:40;18.73;;;6.00;;
6356;SDS011;3211;53.452;-2.264;2023-01-26T07:12:07;12.93;;;5.20;;
6356;SDS011;3211;53.452;-2.264;2023-01-26T07:14:34;9.90;;;5.60;;
6356;SDS011;3211;53.452;-2.264;2023-01-26T07:17:01;7.60;;;4.93;;
6356;SDS011;3211;53.452;-2.264;2023-01-26T07:19:28;7.57;;;4.97;;
6356;SDS011;3211;53.452;-2.264;2023-01-26T07:21:57;13.43;;;5.33;;
6356;SDS011;3211;53.452;-2.264;2023-01-26T07:24:25;11.17;;;5.70;;
6356;SDS011;3211;53.452;-2.264;2023-01-26T07:26:53;8.53;;;5.10;;
6356;SDS011;3211;53.452;-2.264;2023-01-26T07:29:20;11.53;;;4.40;;
6356;SDS011;3211;53.452;-2.264;2023-01-26T07:31:47;10.63;;;5.37;;
6356;SDS011;3211;53.452;-2.264;2023-01-26T07:34:14;7.90;;;4.50;;
6356;SDS011;3211;53.452;-2.264;2023-01-26T07:36:41;9.47;;;5.20;;
6356;SDS011;3211;53.452;-2.264;2023-01-26T07:39:08;10.80;;;5.70;;
6356;SDS011;3211;53.452;-2.264;2023-01-26T07:41:37;10.13;;;4.70;;
6356;SDS011;3211;53.452;-2.264;2023-01-26T07:44:07;13.10;;;5.40;;
6356;SDS011;3211;53.452;-2.264;2023-01-26T07:46:35;10.97;;;5.43;;
6356;SDS011;3211;53.452;-2.264;2023-01-26T07:49:02;11.13;;;5.73;;
6356;SDS011;3211;53.452;-2.264;2023-01-26T07:51:29;12.97;;;5.73;;
6356;SDS011;3211;53.452;-2.264;2023-01-26T07:53:56;12.93;;;6.40;;
6356;SDS011;3211;53.452;-2.264;2023-01-26T07:56:23;13.97;;;6.10;;
6356;SDS011;3211;53.452;-2.264;2023-01-26T07:58:51;10.83;;;6.10;;
6356;SDS011;3211;53.452;-2.264;2023-01-26T08:01:19;14.40;;;5.83;;
6356;SDS011;3211;53.452;-2.264;2023-01-26T08:03:48;12.43;;;6.27;;
6356;SDS011;3211;53.452;-2.264;2023-01-26T08:06:17;10.67;;;6.60;;
6356;SDS011;3211;53.452;-2.264;2023-01-26T08:08:44;13.40;;;6.30;;
6356;SDS011;3211;53.452;-2.264;2023-01-26T08:11:15;9.70;;;6.10;;
6356;SDS011;3211;53.452;-2.264;2023-01-26T08:13:42;12.63;;;6.23;;
6356;SDS011;3211;53.452;-2.264;2023-01-26T08:16:11;11.37;;;6.70;;
6356;SDS011;3211;53.452;-2.264;2023-01-26T08:18:37;10.83;;;6.33;;
6356;SDS011;3211;53.452;-2.264;2023-01-26T08:21:05;18.50;;;8.23;;
6356;SDS011;3211;53.452;-2.264;2023-01-26T08:23:32;19.20;;;9.70;;
6356;SDS011;3211;53.452;-2.264;2023-01-26T08:26:02;21.87;;;9.97;;
6356;SDS011;3211;53.452;-2.264;2023-01-26T08:28:30;21.97;;;11.20;;
6356;SDS011;3211;53.452;-2.264;2023-01-26T08:31:01;20.47;;;9.93;;
6356;SDS011;3211;53.452;-2.264;2023-01-26T08:33:31;12.67;;;7.23;;
6356;SDS011;3211;53.452;-2.264;2023-01-26T08:35:59;12.27;;;6.40;;
6356;SDS011;3211;53.452;-2.264;2023-01-26T08:38:28;13.83;;;6.77;;
6356;SDS011;3211;53.452;-2.264;2023-01-26T08:40:55;9.93;;;5.97;;
6356;SDS011;3211;53.452;-2.264;2023-01-26T08:43:22;17.23;;;6.83;;
6356;SDS011;3211;53.452;-2.264;2023-01-26T08:45:49;12.23;;;6.80;;
6356;SDS011;3211;53.452;-2.264;2023-01-26T08:48:16;16.63;;;7.03;;
6356;SDS011;3211;53.452;-2.264;2023-01-26T08:50:45;14.03;;;6.20;;
6356;SDS011;3211;53.452;-2.264;2023-01-26T08:53:12;16.20;;;7.97;;
6356;SDS011;3211;53.452;-2.264;2023-01-26T08:55:39;14.70;;;8.47;;
6356;SDS011;3211;53.452;-2.264;2023-01-26T08:58:06;43.27;;;17.07;;
6356;SDS011;3211;53.452;-2.264;2023-01-26T09:00:33;56.30;;;25.87;;
6356;SDS011;3211;53.452;-2.264;2023-01-26T09:03:00;25.00;;;11.57;;
6356;SDS011;3211;53.452;-2.264;2023-01-26T09:05:30;19.13;;;8.47;;
6356;SDS011;3211;53.452;-2.264;2023-01-26T09:08:00;16.90;;;7.80;;
6356;SDS011;3211;53.452;-2.264;2023-01-26T09:10:28;12.33;;;6.63;;
6356;SDS011;3211;53.452;-2.264;2023-01-26T09:12:55;14.60;;;6.93;;
6356;SDS011;3211;53.452;-2.264;2023-01-26T09:15:22;14.20;;;7.40;;
6356;SDS011;3211;53.452;-2.264;2023-01-26T09:17:50;15.27;;;6.80;;
6356;SDS011;3211;53.452;-2.264;2023-01-26T09:20:17;11.33;;;6.57;;
6356;SDS011;3211;53.452;-2.264;2023-01-26T09:22:45;16.00;;;6.30;;
6356;SDS011;3211;53.452;-2.264;2023-01-26T09:25:14;12.50;;;6.50;;
6356;SDS011;3211;53.452;-2.264;2023-01-26T09:27:41;10.17;;;5.70;;
6356;SDS011;3211;53.452;-2.264;2023-01-26T09:30:09;12.40;;;6.17;;
6356;SDS011;3211;53.452;-2.264;2023-01-26T09:32:37;19.03;;;8.30;;
6356;SDS011;3211;53.452;-2.264;2023-01-26T09:35:04;13.27;;;6.47;;
6356;SDS011;3211;53.452;-2.264;2023-01-26T09:37:35;15.50;;;7.77;;
6356;SDS011;3211;53.452;-2.264;2023-01-26T09:40:03;16.70;;;8.33;;
6356;SDS011;3211;53.452;-2.264;2023-01-26T09:42:34;18.57;;;8.37;;
6356;SDS011;3211;53.452;-2.264;2023-01-26T09:45:19;17.07;;;5.93;;
6356;SDS011;3211;53.452;-2.264;2023-01-26T09:47:58;15.03;;;5.67;;
6356;SDS011;3211;53.452;-2.264;2023-01-26T09:50:39;7.60;;;4.70;;
6356;SDS011;3211;53.452;-2.264;2023-01-26T09:53:11;11.33;;;4.73;;
6356;SDS011;3211;53.452;-2.264;2023-01-26T09:55:41;6.53;;;4.20;;
6356;SDS011;3211;53.452;-2.264;2023-01-26T09:58:13;11.57;;;4.57;;
6356;SDS011;3211;53.452;-2.264;2023-01-26T10:00:45;14.73;;;5.10;;
6356;SDS011;3211;53.452;-2.264;2023-01-26T10:03:17;14.20;;;5.33;;
6356;SDS011;3211;53.452;-2.264;2023-01-26T10:05:52;14.07;;;4.70;;
6356;SDS011;3211;53.452;-2.264;2023-01-26T10:08:24;12.50;;;6.30;;
6356;SDS011;3211;53.452;-2.264;2023-01-26T10:10:52;13.87;;;5.30;;
6356;SDS011;3211;53.452;-2.264;2023-01-26T10:13:24;17.37;;;5.00;;
6356;SDS011;3211;53.452;-2.264;2023-01-26T10:15:53;10.80;;;4.67;;
6356;SDS011;3211;53.452;-2.264;2023-01-26T10:18:25;9.03;;;4.70;;
6356;SDS011;3211;53.452;-2.264;2023-01-26T10:20:57;8.13;;;3.80;;
6356;SDS011;3211;53.452;-2.264;2023-01-26T10:23:27;9.40;;;3.80;;
6356;SDS011;3211;53.452;-2.264;2023-01-26T10:25:55;17.73;;;4.17;;
6356;SDS011;3211;53.452;-2.264;2023-01-26T10:28:31;5.20;;;3.13;;
6356;SDS011;3211;53.452;-2.264;2023-01-26T10:31:01;10.80;;;3.90;;
6356;SDS011;3211;53.452;-2.264;2023-01-26T10:33:29;9.83;;;5.00;;
6356;SDS011;3211;53.452;-2.264;2023-01-26T10:35:58;9.27;;;4.00;;
6356;SDS011;3211;53.452;-2.264;2023-01-26T10:38:25;7.60;;;3.30;;
6356;SDS011;3211;53.452;-2.264;2023-01-26T10:40:54;8.50;;;3.60;;
6356;SDS011;3211;53.452;-2.264;2023-01-26T10:43:21;8.73;;;4.20;;
6356;SDS011;3211;53.452;-2.264;2023-01-26T10:45:51;11.00;;;5.00;;
6356;SDS011;3211;53.452;-2.264;2023-01-26T10:48:19;18.53;;;4.30;;
6356;SDS011;3211;53.452;-2.264;2023-01-26T10:50:48;14.50;;;5.83;;
6356;SDS011;3211;53.452;-2.264;2023-01-26T10:53:16;16.80;;;4.23;;
6356;SDS011;3211;53.452;-2.264;2023-01-26T10:55:56;9.23;;;4.20;;
6356;SDS011;3211;53.452;-2.264;2023-01-26T11:01:22;9.10;;;3.77;;
6356;SDS011;3211;53.452;-2.264;2023-01-26T11:04:03;12.13;;;4.07;;
6356;SDS011;3211;53.452;-2.264;2023-01-26T11:06:31;11.60;;;4.80;;
6356;SDS011;3211;53.452;-2.264;2023-01-26T11:09:09;12.73;;;4.90;;
6356;SDS011;3211;53.452;-2.264;2023-01-26T11:11:43;8.73;;;3.83;;
6356;SDS011;3211;53.452;-2.264;2023-01-26T11:14:22;16.27;;;7.00;;
6356;SDS011;3211;53.452;-2.264;2023-01-26T11:16:52;25.07;;;10.30;;
6356;SDS011;3211;53.452;-2.264;2023-01-26T11:19:30;16.43;;;6.00;;
6356;SDS011;3211;53.452;-2.264;2023-01-26T11:22:08;10.10;;;4.37;;
6356;SDS011;3211;53.452;-2.264;2023-01-26T11:24:41;4.80;;;3.33;;
6356;SDS011;3211;53.452;-2.264;2023-01-26T11:27:17;17.30;;;4.13;;
6356;SDS011;3211;53.452;-2.264;2023-01-26T11:30:11;13.17;;;4.20;;
6356;SDS011;3211;53.452;-2.264;2023-01-26T11:33:02;9.83;;;4.33;;
6356;SDS011;3211;53.452;-2.264;2023-01-26T11:35:35;8.87;;;3.20;;
6356;SDS011;3211;53.452;-2.264;2023-01-26T11:38:13;9.50;;;3.60;;
6356;SDS011;3211;53.452;-2.264;2023-01-26T11:40:59;8.50;;;3.00;;
6356;SDS011;3211;53.452;-2.264;2023-01-26T11:43:43;11.70;;;3.80;;
6356;SDS011;3211;53.452;-2.264;2023-01-26T11:46:25;9.57;;;4.47;;
6356;SDS011;3211;53.452;-2.264;2023-01-26T11:49:05;7.13;;;3.80;;
6356;SDS011;3211;53.452;-2.264;2023-01-26T11:51:45;4.80;;;2.40;;
6356;SDS011;3211;53.452;-2.264;2023-01-26T11:54:27;8.00;;;3.60;;
6356;SDS011;3211;53.452;-2.264;2023-01-26T11:57:04;5.27;;;3.97;;
6356;SDS011;3211;53.452;-2.264;2023-01-26T11:59:38;12.67;;;4.13;;
6356;SDS011;3211;53.452;-2.264;2023-01-26T12:02:14;9.17;;;3.17;;
6356;SDS011;3211;53.452;-2.264;2023-01-26T12:04:51;7.27;;;2.77;;
6356;SDS011;3211;53.452;-2.264;2023-01-26T12:07:20;10.13;;;5.60;;
6356;SDS011;3211;53.452;-2.264;2023-01-26T12:09:52;8.17;;;3.40;;
6356;SDS011;3211;53.452;-2.264;2023-01-26T12:12:21;8.60;;;3.70;;
6356;SDS011;3211;53.452;-2.264;2023-01-26T12:15:00;15.23;;;3.00;;
6356;SDS011;3211;53.452;-2.264;2023-01-26T12:17:31;9.20;;;3.00;;
6356;SDS011;3211;53.452;-2.264;2023-01-26T12:20:14;9.50;;;4.20;;
6356;SDS011;3211;53.452;-2.264;2023-01-26T12:22:52;6.83;;;2.80;;
6356;SDS011;3211;53.452;-2.264;2023-01-26T12:25:27;9.87;;;3.07;;
6356;SDS011;3211;53.452;-2.264;2023-01-26T12:28:00;4.47;;;2.13;;
6356;SDS011;3211;53.452;-2.264;2023-01-26T12:30:40;3.50;;;2.07;;
6356;SDS011;3211;53.452;-2.264;2023-01-26T12:33:12;5.63;;;2.23;;
6356;SDS011;3211;53.452;-2.264;2023-01-26T12:35:48;3.70;;;2.63;;
6356;SDS011;3211;53.452;-2.264;2023-01-26T12:38:38;6.93;;;2.37;;
6356;SDS011;3211;53.452;-2.264;2023-01-26T12:41:13;5.00;;;2.20;;
6356;SDS011;3211;53.452;-2.264;2023-01-26T12:43:55;9.43;;;2.17;;
6356;SDS011;3211;53.452;-2.264;2023-01-26T12:46:33;5.50;;;1.93;;
6356;SDS011;3211;53.452;-2.264;2023-01-26T12:49:02;5.77;;;2.10;;
6356;SDS011;3211;53.452;-2.264;2023-01-26T12:51:37;8.23;;;2.40;;
6356;SDS011;3211;53.452;-2.264;2023-01-26T12:54:10;7.90;;;2.07;;
6356;SDS011;3211;53.452;-2.264;2023-01-26T12:56:43;5.03;;;2.17;;
6356;SDS011;3211;53.452;-2.264;2023-01-26T12:59:15;5.60;;;2.05;;
6356;SDS011;3211;53.452;-2.264;2023-01-26T13:02:08;4.53;;;1.83;;
6356;SDS011;3211;53.452;-2.264;2023-01-26T13:05:03;3.13;;;1.60;;
6356;SDS011;3211;53.452;-2.264;2023-01-26T13:07:34;5.93;;;1.90;;
6356;SDS011;3211;53.452;-2.264;2023-01-26T13:10:17;5.23;;;1.93;;
6356;SDS011;3211;53.452;-2.264;2023-01-26T13:12:49;5.10;;;1.60;;
6356;SDS011;3211;53.452;-2.264;2023-01-26T13:15:18;5.80;;;1.80;;
6356;SDS011;3211;53.452;-2.264;2023-01-26T13:17:47;5.27;;;1.57;;
6356;SDS011;3211;53.452;-2.264;2023-01-26T13:26:20;4.90;;;2.23;;
6356;SDS011;3211;53.452;-2.264;2023-01-26T13:31:57;4.27;;;1.60;;
6356;SDS011;3211;53.452;-2.264;2023-01-26T13:34:27;5.00;;;1.60;;
6356;SDS011;3211;53.452;-2.264;2023-01-26T13:37:04;2.27;;;1.40;;
6356;SDS011;3211;53.452;-2.264;2023-01-26T13:39:37;4.30;;;1.50;;
6356;SDS011;3211;53.452;-2.264;2023-01-26T13:42:15;2.10;;;1.37;;
6356;SDS011;3211;53.452;-2.264;2023-01-26T13:44:48;3.10;;;1.60;;
6356;SDS011;3211;53.452;-2.264;2023-01-26T13:47:22;3.63;;;1.23;;
6356;SDS011;3211;53.452;-2.264;2023-01-26T13:49:52;2.90;;;1.63;;
6356;SDS011;3211;53.452;-2.264;2023-01-26T13:52:20;3.73;;;1.33;;
6356;SDS011;3211;53.452;-2.264;2023-01-26T13:54:49;14.63;;;1.60;;
6356;SDS011;3211;53.452;-2.264;2023-01-26T13:57:23;7.57;;;2.00;;
6356;SDS011;3211;53.452;-2.264;2023-01-26T13:59:53;4.73;;;1.57;;
6356;SDS011;3211;53.452;-2.264;2023-01-26T14:02:23;2.80;;;1.47;;
6356;SDS011;3211;53.452;-2.264;2023-01-26T14:04:52;2.53;;;1.40;;
6356;SDS011;3211;53.452;-2.264;2023-01-26T14:07:24;4.73;;;1.33;;
6356;SDS011;3211;53.452;-2.264;2023-01-26T14:09:53;5.53;;;1.50;;
6356;SDS011;3211;53.452;-2.264;2023-01-26T14:12:24;5.47;;;1.70;;
6356;SDS011;3211;53.452;-2.264;2023-01-26T14:14:55;7.57;;;2.13;;
6356;SDS011;3211;53.452;-2.264;2023-01-26T14:17:26;5.60;;;1.83;;
6356;SDS011;3211;53.452;-2.264;2023-01-26T14:19:57;2.63;;;1.50;;
6356;SDS011;3211;53.452;-2.264;2023-01-26T14:22:25;4.80;;;1.50;;
6356;SDS011;3211;53.452;-2.264;2023-01-26T14:24:55;2.57;;;1.50;;
6356;SDS011;3211;53.452;-2.264;2023-01-26T14:27:34;3.13;;;1.40;;
6356;SDS011;3211;53.452;-2.264;2023-01-26T14:32:47;4.10;;;1.60;;
6356;SDS011;3211;53.452;-2.264;2023-01-26T14:35:20;9.47;;;1.60;;
6356;SDS011;3211;53.452;-2.264;2023-01-26T14:37:47;4.10;;;1.30;;
6356;SDS011;3211;53.452;-2.264;2023-01-26T14:40:19;6.63;;;1.60;;
6356;SDS011;3211;53.452;-2.264;2023-01-26T14:43:00;9.13;;;1.50;;
6356;SDS011;3211;53.452;-2.264;2023-01-26T14:45:29;5.73;;;1.40;;
6356;SDS011;3211;53.452;-2.264;2023-01-26T14:48:16;4.90;;;1.80;;
6356;SDS011;3211;53.452;-2.264;2023-01-26T14:50:47;2.30;;;1.50;;
6356;SDS011;3211;53.452;-2.264;2023-01-26T14:53:15;2.73;;;1.40;;
6356;SDS011;3211;53.452;-2.264;2023-01-26T14:55:48;5.57;;;1.40;;
6356;SDS011;3211;53.452;-2.264;2023-01-26T14:58:20;11.30;;;2.10;;
6356;SDS011;3211;53.452;-2.264;2023-01-26T15:00:50;1.77;;;1.20;;
6356;SDS011;3211;53.452;-2.264;2023-01-26T15:03:21;1.70;;;1.10;;
6356;SDS011;3211;53.452;-2.264;2023-01-26T15:06:02;5.07;;;1.90;;
6356;SDS011;3211;53.452;-2.264;2023-01-26T15:08:31;4.30;;;1.57;;
6356;SDS011;3211;53.452;-2.264;2023-01-26T15:10:59;2.53;;;1.30;;
6356;SDS011;3211;53.452;-2.264;2023-01-26T15:13:42;2.77;;;1.50;;
6356;SDS011;3211;53.452;-2.264;2023-01-26T15:16:13;4.03;;;1.47;;
6356;SDS011;3211;53.452;-2.264;2023-01-26T15:18:41;5.87;;;1.87;;
6356;SDS011;3211;53.452;-2.264;2023-01-26T15:21:10;6.70;;;2.10;;
6356;SDS011;3211;53.452;-2.264;2023-01-26T15:23:40;5.60;;;2.10;;
6356;SDS011;3211;53.452;-2.264;2023-01-26T15:26:09;5.03;;;1.80;;
6356;SDS011;3211;53.452;-2.264;2023-01-26T15:28:39;3.43;;;2.00;;
6356;SDS011;3211;53.452;-2.264;2023-01-26T15:31:08;5.03;;;2.03;;